Air Navigation Services of Czech Republic
Airport: LKCS Updated:  03.10.2022 11:00:33  UTC
 METAR LKCS 03.10. 11:00 ...
METAR LKCS 031100Z AUTO 30007KT 280V340 9999 -RA FEW038/// SCT049/// BKN061/// 12/08 Q1024=